sensor_id;sensor_type;location;lat;lon;timestamp;P1;durP1;ratioP1;P2;durP2;ratioP2
57551;SDS011;43379;48.160;14.036;2023-06-14T00:01:50;5.43;;;4.93;;
57551;SDS011;43379;48.160;14.036;2023-06-14T00:04:16;7.80;;;5.47;;
57551;SDS011;43379;48.160;14.036;2023-06-14T00:06:42;4.90;;;4.50;;
57551;SDS011;43379;48.160;14.036;2023-06-14T00:09:10;5.80;;;5.20;;
57551;SDS011;43379;48.160;14.036;2023-06-14T00:11:38;7.30;;;5.50;;
57551;SDS011;43379;48.160;14.036;2023-06-14T00:14:05;5.47;;;5.00;;
57551;SDS011;43379;48.160;14.036;2023-06-14T00:16:31;8.30;;;6.07;;
57551;SDS011;43379;48.160;14.036;2023-06-14T00:18:58;5.57;;;5.00;;
57551;SDS011;43379;48.160;14.036;2023-06-14T00:21:24;8.50;;;5.60;;
57551;SDS011;43379;48.160;14.036;2023-06-14T00:23:50;6.13;;;5.53;;
57551;SDS011;43379;48.160;14.036;2023-06-14T00:26:15;5.93;;;4.90;;
57551;SDS011;43379;48.160;14.036;2023-06-14T00:28:41;6.20;;;5.60;;
57551;SDS011;43379;48.160;14.036;2023-06-14T00:31:06;5.57;;;5.07;;
57551;SDS011;43379;48.160;14.036;2023-06-14T00:33:32;5.73;;;5.10;;
57551;SDS011;43379;48.160;14.036;2023-06-14T00:35:58;5.53;;;5.03;;
57551;SDS011;43379;48.160;14.036;2023-06-14T00:38:24;5.80;;;4.97;;
57551;SDS011;43379;48.160;14.036;2023-06-14T00:40:50;7.40;;;5.53;;
57551;SDS011;43379;48.160;14.036;2023-06-14T00:43:16;5.40;;;4.80;;
57551;SDS011;43379;48.160;14.036;2023-06-14T00:45:42;5.70;;;5.23;;
57551;SDS011;43379;48.160;14.036;2023-06-14T00:48:07;6.90;;;6.10;;
57551;SDS011;43379;48.160;14.036;2023-06-14T00:50:34;5.80;;;5.30;;
57551;SDS011;43379;48.160;14.036;2023-06-14T00:53:01;6.30;;;5.63;;
57551;SDS011;43379;48.160;14.036;2023-06-14T00:55:28;5.70;;;5.10;;
57551;SDS011;43379;48.160;14.036;2023-06-14T00:57:54;5.23;;;4.73;;
57551;SDS011;43379;48.160;14.036;2023-06-14T01:00:20;5.50;;;5.00;;
57551;SDS011;43379;48.160;14.036;2023-06-14T01:02:46;5.60;;;5.10;;
57551;SDS011;43379;48.160;14.036;2023-06-14T01:05:12;5.70;;;5.20;;
57551;SDS011;43379;48.160;14.036;2023-06-14T01:13:23;5.23;;;4.73;;
57551;SDS011;43379;48.160;14.036;2023-06-14T01:15:57;6.27;;;5.73;;
57551;SDS011;43379;48.160;14.036;2023-06-14T01:18:23;5.67;;;5.17;;
57551;SDS011;43379;48.160;14.036;2023-06-14T01:20:51;6.07;;;5.10;;
57551;SDS011;43379;48.160;14.036;2023-06-14T01:23:20;6.80;;;5.20;;
57551;SDS011;43379;48.160;14.036;2023-06-14T01:25:47;5.70;;;5.23;;
57551;SDS011;43379;48.160;14.036;2023-06-14T01:28:17;5.20;;;4.70;;
57551;SDS011;43379;48.160;14.036;2023-06-14T01:30:46;5.80;;;5.20;;
57551;SDS011;43379;48.160;14.036;2023-06-14T01:33:20;5.80;;;5.30;;
57551;SDS011;43379;48.160;14.036;2023-06-14T01:35:49;6.37;;;5.77;;
57551;SDS011;43379;48.160;14.036;2023-06-14T01:38:17;6.50;;;5.50;;
57551;SDS011;43379;48.160;14.036;2023-06-14T01:40:44;6.10;;;5.60;;
57551;SDS011;43379;48.160;14.036;2023-06-14T01:43:12;9.53;;;6.60;;
57551;SDS011;43379;48.160;14.036;2023-06-14T01:45:40;7.30;;;6.60;;
57551;SDS011;43379;48.160;14.036;2023-06-14T01:48:07;7.60;;;6.80;;
57551;SDS011;43379;48.160;14.036;2023-06-14T01:50:33;7.30;;;6.13;;
57551;SDS011;43379;48.160;14.036;2023-06-14T01:52:59;6.83;;;6.23;;
57551;SDS011;43379;48.160;14.036;2023-06-14T01:55:25;7.13;;;6.43;;
57551;SDS011;43379;48.160;14.036;2023-06-14T01:57:51;6.07;;;5.47;;
57551;SDS011;43379;48.160;14.036;2023-06-14T02:00:17;7.03;;;5.60;;
57551;SDS011;43379;48.160;14.036;2023-06-14T02:02:44;7.17;;;6.03;;
57551;SDS011;43379;48.160;14.036;2023-06-14T02:05:11;8.87;;;6.23;;
57551;SDS011;43379;48.160;14.036;2023-06-14T02:07:36;7.00;;;6.30;;
57551;SDS011;43379;48.160;14.036;2023-06-14T02:10:03;5.90;;;5.00;;
57551;SDS011;43379;48.160;14.036;2023-06-14T02:12:29;7.17;;;6.57;;
57551;SDS011;43379;48.160;14.036;2023-06-14T02:14:55;6.43;;;5.83;;
57551;SDS011;43379;48.160;14.036;2023-06-14T02:17:21;6.93;;;6.33;;
57551;SDS011;43379;48.160;14.036;2023-06-14T02:19:47;10.30;;;6.40;;
57551;SDS011;43379;48.160;14.036;2023-06-14T02:22:13;6.67;;;6.00;;
57551;SDS011;43379;48.160;14.036;2023-06-14T02:24:40;5.97;;;5.43;;
57551;SDS011;43379;48.160;14.036;2023-06-14T02:27:06;6.50;;;5.90;;
57551;SDS011;43379;48.160;14.036;2023-06-14T02:29:33;6.17;;;5.57;;
57551;SDS011;43379;48.160;14.036;2023-06-14T02:31:59;7.83;;;6.70;;
57551;SDS011;43379;48.160;14.036;2023-06-14T02:34:24;7.10;;;5.57;;
57551;SDS011;43379;48.160;14.036;2023-06-14T02:36:50;6.23;;;5.73;;
57551;SDS011;43379;48.160;14.036;2023-06-14T02:39:17;7.73;;;5.53;;
57551;SDS011;43379;48.160;14.036;2023-06-14T02:41:45;5.93;;;5.43;;
57551;SDS011;43379;48.160;14.036;2023-06-14T02:44:13;5.03;;;4.53;;
57551;SDS011;43379;48.160;14.036;2023-06-14T02:46:38;5.47;;;4.97;;
57551;SDS011;43379;48.160;14.036;2023-06-14T02:49:04;5.90;;;5.00;;
57551;SDS011;43379;48.160;14.036;2023-06-14T02:51:30;6.63;;;5.70;;
57551;SDS011;43379;48.160;14.036;2023-06-14T02:53:56;7.33;;;6.63;;
57551;SDS011;43379;48.160;14.036;2023-06-14T02:56:22;6.47;;;5.80;;
57551;SDS011;43379;48.160;14.036;2023-06-14T02:58:47;5.50;;;5.00;;
57551;SDS011;43379;48.160;14.036;2023-06-14T03:01:13;6.47;;;5.87;;
57551;SDS011;43379;48.160;14.036;2023-06-14T03:03:39;7.60;;;5.60;;
57551;SDS011;43379;48.160;14.036;2023-06-14T03:06:05;6.47;;;5.90;;
57551;SDS011;43379;48.160;14.036;2023-06-14T03:08:33;6.17;;;5.57;;
57551;SDS011;43379;48.160;14.036;2023-06-14T03:11:03;6.23;;;5.73;;
57551;SDS011;43379;48.160;14.036;2023-06-14T03:13:33;6.90;;;6.20;;
57551;SDS011;43379;48.160;14.036;2023-06-14T03:16:00;7.07;;;5.90;;
57551;SDS011;43379;48.160;14.036;2023-06-14T03:18:31;7.13;;;6.40;;
57551;SDS011;43379;48.160;14.036;2023-06-14T03:21:00;6.23;;;5.70;;
57551;SDS011;43379;48.160;14.036;2023-06-14T03:23:30;6.83;;;6.20;;
57551;SDS011;43379;48.160;14.036;2023-06-14T03:25:56;10.07;;;6.20;;
57551;SDS011;43379;48.160;14.036;2023-06-14T03:28:22;7.23;;;6.63;;
57551;SDS011;43379;48.160;14.036;2023-06-14T03:30:47;7.77;;;7.07;;
57551;SDS011;43379;48.160;14.036;2023-06-14T03:33:13;8.17;;;6.73;;
57551;SDS011;43379;48.160;14.036;2023-06-14T03:35:40;6.77;;;6.13;;
57551;SDS011;43379;48.160;14.036;2023-06-14T03:38:06;7.30;;;5.87;;
57551;SDS011;43379;48.160;14.036;2023-06-14T03:40:32;6.67;;;5.97;;
57551;SDS011;43379;48.160;14.036;2023-06-14T03:42:57;6.70;;;5.93;;
57551;SDS011;43379;48.160;14.036;2023-06-14T03:45:23;7.20;;;6.60;;
57551;SDS011;43379;48.160;14.036;2023-06-14T03:47:48;6.60;;;5.90;;
57551;SDS011;43379;48.160;14.036;2023-06-14T03:50:15;6.20;;;5.60;;
57551;SDS011;43379;48.160;14.036;2023-06-14T03:52:42;6.50;;;6.00;;
57551;SDS011;43379;48.160;14.036;2023-06-14T03:55:08;8.23;;;6.33;;
57551;SDS011;43379;48.160;14.036;2023-06-14T03:57:35;8.40;;;6.23;;
57551;SDS011;43379;48.160;14.036;2023-06-14T04:00:01;6.63;;;6.03;;
57551;SDS011;43379;48.160;14.036;2023-06-14T04:02:29;6.50;;;5.90;;
57551;SDS011;43379;48.160;14.036;2023-06-14T04:04:55;7.30;;;6.23;;
57551;SDS011;43379;48.160;14.036;2023-06-14T04:07:20;7.73;;;6.20;;
57551;SDS011;43379;48.160;14.036;2023-06-14T04:09:46;8.13;;;6.47;;
57551;SDS011;43379;48.160;14.036;2023-06-14T04:12:12;6.47;;;5.83;;
57551;SDS011;43379;48.160;14.036;2023-06-14T04:14:38;8.40;;;6.03;;
57551;SDS011;43379;48.160;14.036;2023-06-14T04:17:05;7.73;;;6.60;;
57551;SDS011;43379;48.160;14.036;2023-06-14T04:19:31;6.67;;;5.97;;
57551;SDS011;43379;48.160;14.036;2023-06-14T04:21:57;9.60;;;7.03;;
57551;SDS011;43379;48.160;14.036;2023-06-14T04:24:26;6.80;;;6.20;;
57551;SDS011;43379;48.160;14.036;2023-06-14T04:26:57;7.03;;;6.43;;
57551;SDS011;43379;48.160;14.036;2023-06-14T04:29:28;7.63;;;6.80;;
57551;SDS011;43379;48.160;14.036;2023-06-14T04:31:54;7.27;;;6.37;;
57551;SDS011;43379;48.160;14.036;2023-06-14T04:34:24;7.60;;;6.77;;
57551;SDS011;43379;48.160;14.036;2023-06-14T04:36:54;10.07;;;6.80;;
57551;SDS011;43379;48.160;14.036;2023-06-14T04:39:24;7.00;;;6.40;;
57551;SDS011;43379;48.160;14.036;2023-06-14T04:41:51;6.23;;;5.73;;
57551;SDS011;43379;48.160;14.036;2023-06-14T04:44:17;7.30;;;6.60;;
57551;SDS011;43379;48.160;14.036;2023-06-14T04:46:44;7.67;;;6.87;;
57551;SDS011;43379;48.160;14.036;2023-06-14T04:49:13;7.50;;;6.80;;
57551;SDS011;43379;48.160;14.036;2023-06-14T04:51:44;6.63;;;6.07;;
57551;SDS011;43379;48.160;14.036;2023-06-14T04:54:10;9.80;;;6.13;;
57551;SDS011;43379;48.160;14.036;2023-06-14T04:56:40;6.90;;;6.20;;
57551;SDS011;43379;48.160;14.036;2023-06-14T04:59:07;7.10;;;6.40;;
57551;SDS011;43379;48.160;14.036;2023-06-14T05:01:34;7.40;;;6.67;;
57551;SDS011;43379;48.160;14.036;2023-06-14T05:03:59;6.33;;;5.77;;
57551;SDS011;43379;48.160;14.036;2023-06-14T05:06:25;8.40;;;6.87;;
57551;SDS011;43379;48.160;14.036;2023-06-14T05:08:54;6.87;;;6.20;;
57551;SDS011;43379;48.160;14.036;2023-06-14T05:11:19;10.07;;;5.87;;
57551;SDS011;43379;48.160;14.036;2023-06-14T05:13:45;6.77;;;6.17;;
57551;SDS011;43379;48.160;14.036;2023-06-14T05:16:11;8.37;;;6.73;;
57551;SDS011;43379;48.160;14.036;2023-06-14T05:18:38;7.87;;;6.73;;
57551;SDS011;43379;48.160;14.036;2023-06-14T05:21:05;8.10;;;6.60;;
57551;SDS011;43379;48.160;14.036;2023-06-14T05:23:31;6.93;;;6.33;;
57551;SDS011;43379;48.160;14.036;2023-06-14T05:25:56;11.73;;;7.50;;
57551;SDS011;43379;48.160;14.036;2023-06-14T05:28:22;8.23;;;6.43;;
57551;SDS011;43379;48.160;14.036;2023-06-14T05:30:48;7.20;;;6.50;;
57551;SDS011;43379;48.160;14.036;2023-06-14T05:33:14;7.43;;;6.73;;
57551;SDS011;43379;48.160;14.036;2023-06-14T05:35:40;9.03;;;6.57;;
57551;SDS011;43379;48.160;14.036;2023-06-14T05:38:06;7.67;;;6.97;;
57551;SDS011;43379;48.160;14.036;2023-06-14T05:40:32;7.47;;;6.77;;
57551;SDS011;43379;48.160;14.036;2023-06-14T05:42:58;9.20;;;7.30;;
57551;SDS011;43379;48.160;14.036;2023-06-14T05:45:24;8.17;;;7.33;;
57551;SDS011;43379;48.160;14.036;2023-06-14T05:47:49;9.10;;;6.97;;
57551;SDS011;43379;48.160;14.036;2023-06-14T05:50:15;8.60;;;7.70;;
57551;SDS011;43379;48.160;14.036;2023-06-14T05:52:41;8.10;;;7.40;;
57551;SDS011;43379;48.160;14.036;2023-06-14T05:55:07;6.93;;;6.33;;
57551;SDS011;43379;48.160;14.036;2023-06-14T05:57:33;11.30;;;7.90;;
57551;SDS011;43379;48.160;14.036;2023-06-14T05:59:58;9.63;;;8.50;;
57551;SDS011;43379;48.160;14.036;2023-06-14T06:02:24;9.33;;;8.20;;
57551;SDS011;43379;48.160;14.036;2023-06-14T06:04:50;6.80;;;6.10;;
57551;SDS011;43379;48.160;14.036;2023-06-14T06:07:15;7.20;;;6.10;;
57551;SDS011;43379;48.160;14.036;2023-06-14T06:09:41;8.07;;;7.20;;
57551;SDS011;43379;48.160;14.036;2023-06-14T06:12:07;8.37;;;7.57;;
57551;SDS011;43379;48.160;14.036;2023-06-14T06:14:32;7.77;;;6.97;;
57551;SDS011;43379;48.160;14.036;2023-06-14T06:16:58;12.57;;;7.03;;
57551;SDS011;43379;48.160;14.036;2023-06-14T06:19:24;8.77;;;7.97;;
57551;SDS011;43379;48.160;14.036;2023-06-14T06:21:50;7.10;;;6.50;;
57551;SDS011;43379;48.160;14.036;2023-06-14T06:24:16;7.70;;;6.93;;
57551;SDS011;43379;48.160;14.036;2023-06-14T06:26:41;7.30;;;6.70;;
57551;SDS011;43379;48.160;14.036;2023-06-14T06:29:07;7.57;;;6.10;;
57551;SDS011;43379;48.160;14.036;2023-06-14T06:31:33;7.77;;;7.07;;
57551;SDS011;43379;48.160;14.036;2023-06-14T06:33:59;7.67;;;6.63;;
57551;SDS011;43379;48.160;14.036;2023-06-14T06:36:25;8.77;;;6.73;;
57551;SDS011;43379;48.160;14.036;2023-06-14T06:38:50;6.57;;;5.97;;
57551;SDS011;43379;48.160;14.036;2023-06-14T06:41:16;7.53;;;6.70;;
57551;SDS011;43379;48.160;14.036;2023-06-14T06:43:41;7.07;;;6.47;;
57551;SDS011;43379;48.160;14.036;2023-06-14T06:46:07;7.90;;;6.80;;
57551;SDS011;43379;48.160;14.036;2023-06-14T06:48:33;8.40;;;6.00;;
57551;SDS011;43379;48.160;14.036;2023-06-14T06:50:58;7.47;;;6.67;;
57551;SDS011;43379;48.160;14.036;2023-06-14T06:53:24;6.93;;;6.37;;
57551;SDS011;43379;48.160;14.036;2023-06-14T06:55:50;7.13;;;6.57;;
57551;SDS011;43379;48.160;14.036;2023-06-14T06:58:15;7.10;;;6.60;;
57551;SDS011;43379;48.160;14.036;2023-06-14T07:00:41;6.13;;;5.63;;
57551;SDS011;43379;48.160;14.036;2023-06-14T07:03:07;6.80;;;5.37;;
57551;SDS011;43379;48.160;14.036;2023-06-14T07:05:33;6.90;;;6.20;;
57551;SDS011;43379;48.160;14.036;2023-06-14T07:07:58;6.80;;;6.23;;
57551;SDS011;43379;48.160;14.036;2023-06-14T07:10:24;6.80;;;6.20;;
57551;SDS011;43379;48.160;14.036;2023-06-14T07:12:50;7.07;;;6.33;;
57551;SDS011;43379;48.160;14.036;2023-06-14T07:15:16;9.43;;;6.50;;
57551;SDS011;43379;48.160;14.036;2023-06-14T07:17:42;6.60;;;6.10;;
57551;SDS011;43379;48.160;14.036;2023-06-14T07:20:07;7.23;;;5.33;;
57551;SDS011;43379;48.160;14.036;2023-06-14T07:22:36;7.00;;;6.20;;
57551;SDS011;43379;48.160;14.036;2023-06-14T07:25:03;7.00;;;6.23;;
57551;SDS011;43379;48.160;14.036;2023-06-14T07:27:29;5.83;;;5.33;;
57551;SDS011;43379;48.160;14.036;2023-06-14T07:29:55;6.63;;;6.03;;
57551;SDS011;43379;48.160;14.036;2023-06-14T07:32:20;6.93;;;5.73;;
57551;SDS011;43379;48.160;14.036;2023-06-14T07:34:46;6.87;;;6.30;;
57551;SDS011;43379;48.160;14.036;2023-06-14T07:37:12;8.03;;;6.43;;
57551;SDS011;43379;48.160;14.036;2023-06-14T07:39:37;6.63;;;6.00;;
57551;SDS011;43379;48.160;14.036;2023-06-14T07:42:03;10.20;;;6.23;;
57551;SDS011;43379;48.160;14.036;2023-06-14T07:44:30;7.20;;;6.50;;
57551;SDS011;43379;48.160;14.036;2023-06-14T07:46:58;7.50;;;6.80;;
57551;SDS011;43379;48.160;14.036;2023-06-14T07:49:25;7.53;;;6.73;;
57551;SDS011;43379;48.160;14.036;2023-06-14T07:51:51;7.10;;;6.40;;
57551;SDS011;43379;48.160;14.036;2023-06-14T07:54:18;8.07;;;7.30;;
57551;SDS011;43379;48.160;14.036;2023-06-14T07:56:44;7.00;;;6.40;;
57551;SDS011;43379;48.160;14.036;2023-06-14T07:59:10;7.70;;;6.23;;
57551;SDS011;43379;48.160;14.036;2023-06-14T08:01:36;11.13;;;7.20;;
57551;SDS011;43379;48.160;14.036;2023-06-14T08:04:02;6.73;;;6.17;;
57551;SDS011;43379;48.160;14.036;2023-06-14T08:06:28;7.77;;;6.70;;
57551;SDS011;43379;48.160;14.036;2023-06-14T08:08:53;7.37;;;6.67;;
57551;SDS011;43379;48.160;14.036;2023-06-14T08:11:19;6.60;;;6.00;;
57551;SDS011;43379;48.160;14.036;2023-06-14T08:13:44;7.10;;;6.40;;
57551;SDS011;43379;48.160;14.036;2023-06-14T08:16:10;6.90;;;5.77;;
57551;SDS011;43379;48.160;14.036;2023-06-14T08:18:36;6.53;;;5.93;;
57551;SDS011;43379;48.160;14.036;2023-06-14T08:21:02;7.60;;;6.83;;
57551;SDS011;43379;48.160;14.036;2023-06-14T08:23:28;7.40;;;5.67;;
57551;SDS011;43379;48.160;14.036;2023-06-14T08:25:53;6.67;;;6.07;;
57551;SDS011;43379;48.160;14.036;2023-06-14T08:28:20;6.40;;;5.90;;
57551;SDS011;43379;48.160;14.036;2023-06-14T08:30:45;6.60;;;6.10;;
57551;SDS011;43379;48.160;14.036;2023-06-14T08:33:11;6.73;;;6.33;;
57551;SDS011;43379;48.160;14.036;2023-06-14T08:35:37;7.00;;;6.33;;
57551;SDS011;43379;48.160;14.036;2023-06-14T08:38:04;6.20;;;5.70;;
57551;SDS011;43379;48.160;14.036;2023-06-14T08:40:30;7.30;;;6.60;;
57551;SDS011;43379;48.160;14.036;2023-06-14T08:42:56;6.33;;;5.07;;
57551;SDS011;43379;48.160;14.036;2023-06-14T08:45:22;8.23;;;5.80;;
57551;SDS011;43379;48.160;14.036;2023-06-14T08:47:52;9.23;;;5.97;;
57551;SDS011;43379;48.160;14.036;2023-06-14T08:50:23;6.00;;;5.50;;
57551;SDS011;43379;48.160;14.036;2023-06-14T08:52:54;6.60;;;5.63;;
57551;SDS011;43379;48.160;14.036;2023-06-14T08:55:25;6.80;;;6.20;;
57551;SDS011;43379;48.160;14.036;2023-06-14T08:57:56;11.90;;;5.90;;
57551;SDS011;43379;48.160;14.036;2023-06-14T09:00:23;7.60;;;6.90;;
57551;SDS011;43379;48.160;14.036;2023-06-14T09:02:50;6.40;;;5.40;;
57551;SDS011;43379;48.160;14.036;2023-06-14T09:05:20;5.80;;;5.30;;
57551;SDS011;43379;48.160;14.036;2023-06-14T09:07:48;8.93;;;5.70;;
57551;SDS011;43379;48.160;14.036;2023-06-14T09:10:15;5.80;;;5.30;;
57551;SDS011;43379;48.160;14.036;2023-06-14T09:12:42;6.67;;;5.47;;
57551;SDS011;43379;48.160;14.036;2023-06-14T09:15:08;5.67;;;5.20;;
57551;SDS011;43379;48.160;14.036;2023-06-14T09:17:37;6.17;;;5.60;;
57551;SDS011;43379;48.160;14.036;2023-06-14T09:20:07;6.70;;;6.10;;
57551;SDS011;43379;48.160;14.036;2023-06-14T09:22:42;7.00;;;6.00;;
57551;SDS011;43379;48.160;14.036;2023-06-14T09:25:08;6.07;;;5.50;;
57551;SDS011;43379;48.160;14.036;2023-06-14T09:27:34;5.47;;;5.03;;
57551;SDS011;43379;48.160;14.036;2023-06-14T09:30:01;5.87;;;4.93;;
57551;SDS011;43379;48.160;14.036;2023-06-14T09:32:30;5.77;;;4.93;;
57551;SDS011;43379;48.160;14.036;2023-06-14T09:34:56;7.40;;;5.63;;
57551;SDS011;43379;48.160;14.036;2023-06-14T09:37:27;7.43;;;5.00;;
57551;SDS011;43379;48.160;14.036;2023-06-14T09:39:54;8.83;;;5.17;;
57551;SDS011;43379;48.160;14.036;2023-06-14T09:42:19;5.83;;;5.33;;
57551;SDS011;43379;48.160;14.036;2023-06-14T09:44:48;5.47;;;4.60;;
57551;SDS011;43379;48.160;14.036;2023-06-14T09:47:15;6.07;;;5.27;;
57551;SDS011;43379;48.160;14.036;2023-06-14T09:49:41;5.83;;;5.30;;
57551;SDS011;43379;48.160;14.036;2023-06-14T09:52:10;4.73;;;4.40;;
57551;SDS011;43379;48.160;14.036;2023-06-14T09:54:40;6.17;;;5.67;;
57551;SDS011;43379;48.160;14.036;2023-06-14T09:57:09;5.33;;;4.83;;
57551;SDS011;43379;48.160;14.036;2023-06-14T09:59:45;5.87;;;5.30;;
57551;SDS011;43379;48.160;14.036;2023-06-14T10:02:28;5.80;;;5.20;;
57551;SDS011;43379;48.160;14.036;2023-06-14T10:07:30;5.83;;;5.03;;
57551;SDS011;43379;48.160;14.036;2023-06-14T10:10:00;6.83;;;5.40;;
57551;SDS011;43379;48.160;14.036;2023-06-14T10:12:26;5.10;;;4.60;;
57551;SDS011;43379;48.160;14.036;2023-06-14T10:14:52;5.20;;;4.70;;
57551;SDS011;43379;48.160;14.036;2023-06-14T10:20:35;5.20;;;4.60;;
57551;SDS011;43379;48.160;14.036;2023-06-14T10:23:17;5.00;;;4.50;;
57551;SDS011;43379;48.160;14.036;2023-06-14T10:25:49;6.47;;;4.63;;
57551;SDS011;43379;48.160;14.036;2023-06-14T10:28:16;4.77;;;4.27;;
57551;SDS011;43379;48.160;14.036;2023-06-14T10:33:52;5.13;;;4.63;;
57551;SDS011;43379;48.160;14.036;2023-06-14T10:38:56;4.40;;;3.83;;
57551;SDS011;43379;48.160;14.036;2023-06-14T10:41:40;4.90;;;4.50;;
57551;SDS011;43379;48.160;14.036;2023-06-14T10:46:47;5.07;;;4.57;;
57551;SDS011;43379;48.160;14.036;2023-06-14T10:49:36;5.47;;;4.97;;
57551;SDS011;43379;48.160;14.036;2023-06-14T10:52:14;7.73;;;4.63;;
57551;SDS011;43379;48.160;14.036;2023-06-14T10:57:50;4.40;;;4.07;;
57551;SDS011;43379;48.160;14.036;2023-06-14T11:00:21;4.70;;;4.30;;
57551;SDS011;43379;48.160;14.036;2023-06-14T11:02:57;5.67;;;4.77;;
57551;SDS011;43379;48.160;14.036;2023-06-14T11:05:55;5.30;;;4.53;;
57551;SDS011;43379;48.160;14.036;2023-06-14T11:11:13;5.80;;;4.90;;
57551;SDS011;43379;48.160;14.036;2023-06-14T11:13:41;4.33;;;3.93;;
57551;SDS011;43379;48.160;14.036;2023-06-14T11:18:38;4.13;;;3.80;;
57551;SDS011;43379;48.160;14.036;2023-06-14T11:21:04;4.50;;;4.20;;
57551;SDS011;43379;48.160;14.036;2023-06-14T11:23:30;6.33;;;4.30;;
57551;SDS011;43379;48.160;14.036;2023-06-14T11:25:56;5.20;;;3.90;;
57551;SDS011;43379;48.160;14.036;2023-06-14T11:28:21;5.43;;;5.00;;
57551;SDS011;43379;48.160;14.036;2023-06-14T11:30:49;5.83;;;5.20;;
57551;SDS011;43379;48.160;14.036;2023-06-14T11:33:24;4.97;;;4.50;;
57551;SDS011;43379;48.160;14.036;2023-06-14T11:35:50;6.57;;;4.17;;
57551;SDS011;43379;48.160;14.036;2023-06-14T11:38:17;4.80;;;4.40;;
57551;SDS011;43379;48.160;14.036;2023-06-14T11:40:42;5.70;;;4.30;;
57551;SDS011;43379;48.160;14.036;2023-06-14T11:43:08;7.00;;;3.83;;
57551;SDS011;43379;48.160;14.036;2023-06-14T11:45:34;6.03;;;4.70;;
57551;SDS011;43379;48.160;14.036;2023-06-14T11:48:00;5.07;;;4.30;;
57551;SDS011;43379;48.160;14.036;2023-06-14T11:50:26;4.23;;;3.83;;
57551;SDS011;43379;48.160;14.036;2023-06-14T11:52:53;6.53;;;4.20;;
57551;SDS011;43379;48.160;14.036;2023-06-14T11:55:20;5.20;;;4.53;;
57551;SDS011;43379;48.160;14.036;2023-06-14T11:57:47;5.20;;;4.43;;
57551;SDS011;43379;48.160;14.036;2023-06-14T12:00:13;4.80;;;4.30;;
57551;SDS011;43379;48.160;14.036;2023-06-14T12:02:40;5.30;;;4.90;;
57551;SDS011;43379;48.160;14.036;2023-06-14T12:05:06;5.53;;;4.13;;
57551;SDS011;43379;48.160;14.036;2023-06-14T12:07:35;5.20;;;4.57;;
57551;SDS011;43379;48.160;14.036;2023-06-14T12:12:27;5.60;;;4.40;;
57551;SDS011;43379;48.160;14.036;2023-06-14T12:14:55;5.30;;;4.70;;
57551;SDS011;43379;48.160;14.036;2023-06-14T12:17:21;4.17;;;3.80;;
57551;SDS011;43379;48.160;14.036;2023-06-14T12:19:48;6.50;;;4.30;;
57551;SDS011;43379;48.160;14.036;2023-06-14T12:22:15;4.20;;;3.90;;
57551;SDS011;43379;48.160;14.036;2023-06-14T12:24:45;4.90;;;3.87;;
57551;SDS011;43379;48.160;14.036;2023-06-14T12:27:11;5.80;;;4.07;;
57551;SDS011;43379;48.160;14.036;2023-06-14T12:29:40;4.63;;;4.23;;
57551;SDS011;43379;48.160;14.036;2023-06-14T12:32:10;8.10;;;4.00;;
57551;SDS011;43379;48.160;14.036;2023-06-14T12:34:36;6.07;;;4.43;;
57551;SDS011;43379;48.160;14.036;2023-06-14T12:37:02;4.97;;;4.47;;
57551;SDS011;43379;48.160;14.036;2023-06-14T12:39:29;5.20;;;4.70;;
57551;SDS011;43379;48.160;14.036;2023-06-14T12:41:58;5.77;;;4.53;;
57551;SDS011;43379;48.160;14.036;2023-06-14T12:44:24;4.93;;;4.53;;
57551;SDS011;43379;48.160;14.036;2023-06-14T12:46:50;5.90;;;5.40;;
57551;SDS011;43379;48.160;14.036;2023-06-14T12:49:18;5.47;;;4.97;;
57551;SDS011;43379;48.160;14.036;2023-06-14T12:51:45;7.57;;;4.97;;
57551;SDS011;43379;48.160;14.036;2023-06-14T12:54:10;7.20;;;4.60;;
57551;SDS011;43379;48.160;14.036;2023-06-14T12:56:37;5.63;;;5.13;;
57551;SDS011;43379;48.160;14.036;2023-06-14T12:59:02;5.60;;;5.13;;
57551;SDS011;43379;48.160;14.036;2023-06-14T13:01:28;6.57;;;4.53;;
57551;SDS011;43379;48.160;14.036;2023-06-14T13:03:54;5.27;;;4.77;;
57551;SDS011;43379;48.160;14.036;2023-06-14T13:06:22;6.33;;;4.97;;
57551;SDS011;43379;48.160;14.036;2023-06-14T13:08:49;5.30;;;4.80;;
57551;SDS011;43379;48.160;14.036;2023-06-14T13:11:15;5.00;;;4.60;;
57551;SDS011;43379;48.160;14.036;2023-06-14T13:13:41;5.90;;;4.70;;
57551;SDS011;43379;48.160;14.036;2023-06-14T13:16:06;5.80;;;5.30;;
57551;SDS011;43379;48.160;14.036;2023-06-14T13:18:32;5.90;;;5.00;;
57551;SDS011;43379;48.160;14.036;2023-06-14T13:20:58;4.90;;;4.50;;
57551;SDS011;43379;48.160;14.036;2023-06-14T13:23:23;5.73;;;4.40;;
57551;SDS011;43379;48.160;14.036;2023-06-14T13:25:49;5.93;;;4.07;;
57551;SDS011;43379;48.160;14.036;2023-06-14T13:28:16;5.97;;;4.10;;
57551;SDS011;43379;48.160;14.036;2023-06-14T13:30:43;5.67;;;4.90;;
57551;SDS011;43379;48.160;14.036;2023-06-14T13:33:09;5.63;;;4.73;;
57551;SDS011;43379;48.160;14.036;2023-06-14T13:35:34;5.60;;;4.37;;
57551;SDS011;43379;48.160;14.036;2023-06-14T13:38:00;6.40;;;4.23;;
57551;SDS011;43379;48.160;14.036;2023-06-14T13:40:26;5.43;;;4.70;;
57551;SDS011;43379;48.160;14.036;2023-06-14T13:42:52;4.50;;;4.10;;
57551;SDS011;43379;48.160;14.036;2023-06-14T13:45:17;14.47;;;4.90;;
57551;SDS011;43379;48.160;14.036;2023-06-14T13:47:43;8.20;;;4.80;;
57551;SDS011;43379;48.160;14.036;2023-06-14T13:50:09;6.97;;;4.77;;
57551;SDS011;43379;48.160;14.036;2023-06-14T13:52:35;6.83;;;4.57;;
57551;SDS011;43379;48.160;14.036;2023-06-14T13:55:01;5.20;;;4.70;;
57551;SDS011;43379;48.160;14.036;2023-06-14T13:57:27;4.60;;;4.20;;
57551;SDS011;43379;48.160;14.036;2023-06-14T13:59:53;7.23;;;5.13;;
57551;SDS011;43379;48.160;14.036;2023-06-14T14:02:20;4.97;;;4.50;;
57551;SDS011;43379;48.160;14.036;2023-06-14T14:04:46;9.80;;;4.20;;
57551;SDS011;43379;48.160;14.036;2023-06-14T14:07:17;11.37;;;4.43;;
57551;SDS011;43379;48.160;14.036;2023-06-14T14:09:44;4.60;;;4.20;;
57551;SDS011;43379;48.160;14.036;2023-06-14T14:12:09;5.33;;;4.83;;
57551;SDS011;43379;48.160;14.036;2023-06-14T14:14:36;5.13;;;4.63;;
57551;SDS011;43379;48.160;14.036;2023-06-14T14:17:02;5.60;;;5.10;;
57551;SDS011;43379;48.160;14.036;2023-06-14T14:19:27;4.80;;;4.40;;
57551;SDS011;43379;48.160;14.036;2023-06-14T14:21:53;5.07;;;4.40;;
57551;SDS011;43379;48.160;14.036;2023-06-14T14:24:19;4.27;;;3.97;;
57551;SDS011;43379;48.160;14.036;2023-06-14T14:26:44;5.10;;;4.20;;
57551;SDS011;43379;48.160;14.036;2023-06-14T14:29:13;5.00;;;4.23;;
57551;SDS011;43379;48.160;14.036;2023-06-14T14:31:39;4.63;;;4.23;;
57551;SDS011;43379;48.160;14.036;2023-06-14T14:34:05;5.27;;;4.00;;
57551;SDS011;43379;48.160;14.036;2023-06-14T14:36:30;5.37;;;4.77;;
57551;SDS011;43379;48.160;14.036;2023-06-14T14:38:58;5.73;;;4.27;;
57551;SDS011;43379;48.160;14.036;2023-06-14T14:41:23;6.07;;;4.80;;
57551;SDS011;43379;48.160;14.036;2023-06-14T14:43:49;4.57;;;4.27;;
57551;SDS011;43379;48.160;14.036;2023-06-14T14:46:15;5.20;;;4.70;;
57551;SDS011;43379;48.160;14.036;2023-06-14T14:48:41;5.87;;;4.97;;
57551;SDS011;43379;48.160;14.036;2023-06-14T14:51:07;5.77;;;5.10;;
57551;SDS011;43379;48.160;14.036;2023-06-14T14:53:33;5.83;;;5.00;;
57551;SDS011;43379;48.160;14.036;2023-06-14T14:55:58;4.90;;;4.20;;
57551;SDS011;43379;48.160;14.036;2023-06-14T14:58:24;4.80;;;4.43;;
57551;SDS011;43379;48.160;14.036;2023-06-14T15:00:50;5.33;;;4.80;;
57551;SDS011;43379;48.160;14.036;2023-06-14T15:03:16;5.70;;;4.60;;